Time;durP1;ratioP1;P1;durP2;ratioP2;P2;SDS_P1;SDS_P2;PMS_P1;PMS_P2;Temp;Humidity;BMP_temperature;BMP_pressure;BME280_temperature;BME280_humidity;BME280_pressure;Samples;Min_cycle;Max_cycle;Signal;HPM_P1;HPM_P2
2022/12/05 00:00:21;;;;;;;18.25;11.35;;;;;;;7.12;100.00;99314.94;5093260;28;20207;-60
2022/12/05 00:02:47;;;;;;;20.25;11.13;;;;;;;7.09;100.00;99334.81;5093282;28;20251;-60
2022/12/05 00:05:12;;;;;;;15.95;10.70;;;;;;;7.28;100.00;99367.47;5093330;28;20176;-61
2022/12/05 00:07:38;;;;;;;16.17;9.57;;;;;;;7.45;100.00;99380.50;5093320;28;20172;-60
2022/12/05 00:10:05;;;;;;;17.95;10.85;;;;;;;7.42;100.00;99360.06;5092736;28;20642;-60
2022/12/05 00:12:30;;;;;;;17.35;10.13;;;;;;;7.53;100.00;99368.19;5093123;28;20185;-60
2022/12/05 00:14:56;;;;;;;15.55;10.50;;;;;;;7.60;100.00;99363.59;5094000;28;20187;-60
2022/12/05 00:17:21;;;;;;;15.80;10.40;;;;;;;7.63;100.00;99363.47;5093062;28;20176;-60
2022/12/05 00:19:47;;;;;;;19.45;9.68;;;;;;;7.48;100.00;99372.69;5093572;28;20237;-61
2022/12/05 00:22:12;;;;;;;15.32;10.02;;;;;;;7.44;100.00;99368.53;5093750;28;20207;-60
2022/12/05 00:24:38;;;;;;;15.45;10.25;;;;;;;7.27;100.00;99359.81;5093479;28;20180;-60
2022/12/05 00:27:04;;;;;;;20.70;12.05;;;;;;;7.32;100.00;99361.31;5093733;28;20179;-61
2022/12/05 00:29:29;;;;;;;21.27;12.07;;;;;;;7.28;100.00;99351.22;5092554;28;20271;-60
2022/12/05 00:31:55;;;;;;;18.85;11.20;;;;;;;7.21;100.00;99355.75;5092898;28;20172;-60
2022/12/05 00:34:20;;;;;;;18.15;10.85;;;;;;;6.99;100.00;99313.75;5092814;28;20211;-60
2022/12/05 00:36:45;;;;;;;19.60;11.88;;;;;;;7.27;100.00;99359.81;5092470;28;20210;-61
2022/12/05 00:39:14;;;;;;;19.40;11.93;;;;;;;6.98;100.00;99319.81;5093061;28;20180;-60
2022/12/05 00:41:41;;;;;;;18.63;13.18;;;;;;;7.21;100.00;99367.78;5092748;28;20212;-60
2022/12/05 00:44:09;;;;;;;24.15;12.80;;;;;;;6.67;100.00;99280.78;5092984;28;20223;-60
2022/12/05 00:46:35;;;;;;;20.08;13.50;;;;;;;6.73;100.00;99311.38;5092639;28;20188;-60
2022/12/05 00:49:03;;;;;;;26.00;14.45;;;;;;;6.58;100.00;99314.53;5092934;28;20238;-60
2022/12/05 00:51:31;;;;;;;20.92;13.95;;;;;;;6.77;100.00;99314.69;5092571;28;20180;-60
2022/12/05 00:53:59;;;;;;;23.48;12.38;;;;;;;7.12;100.00;99363.84;5092608;28;20204;-61
2022/12/05 00:56:27;;;;;;;19.83;13.30;;;;;;;7.21;100.00;99360.91;5092544;28;20233;-61
2022/12/05 00:58:54;;;;;;;16.25;10.23;;;;;;;7.15;100.00;99350.84;5092798;28;20597;-61
2022/12/05 01:01:25;;;;;;;19.25;11.05;;;;;;;7.01;100.00;99322.28;5092478;28;20196;-60
2022/12/05 01:03:53;;;;;;;16.63;11.18;;;;;;;6.82;100.00;99298.16;5092235;28;20168;-60
2022/12/05 01:06:20;;;;;;;20.05;12.02;;;;;;;7.23;100.00;99330.78;5092709;28;20236;-60
2022/12/05 01:08:45;;;;;;;21.13;12.38;;;;;;;7.24;100.00;99340.22;5092427;28;20680;-60
2022/12/05 01:11:14;;;;;;;22.63;12.55;;;;;;;7.30;100.00;99352.84;5092273;28;20231;-60
2022/12/05 01:13:39;;;;;;;20.85;13.10;;;;;;;7.08;100.00;99303.13;5092371;28;20184;-60
2022/12/05 01:16:05;;;;;;;21.80;13.05;;;;;;;6.99;100.00;99302.66;5092930;28;20184;-60
2022/12/05 01:18:30;;;;;;;19.02;12.77;;;;;;;7.27;100.00;99350.38;5092377;28;20586;-60
2022/12/05 01:20:56;;;;;;;21.17;12.23;;;;;;;7.30;100.00;99345.09;5092493;28;20200;-60
2022/12/05 01:23:22;;;;;;;29.77;14.20;;;;;;;6.85;100.00;99254.31;5095373;28;20180;-61
2022/12/05 01:25:50;;;;;;;21.88;12.32;;;;;;;7.23;100.00;99299.91;5096359;28;20176;-60
2022/12/05 01:28:16;;;;;;;19.52;11.65;;;;;;;7.47;100.00;99342.66;5096580;28;20202;-60
2022/12/05 01:30:44;;;;;;;20.85;12.63;;;;;;;7.26;100.00;99320.38;5096276;28;20180;-61
2022/12/05 01:33:12;;;;;;;21.23;12.73;;;;;;;7.29;100.00;99338.25;5096194;28;20634;-60
2022/12/05 01:35:40;;;;;;;20.17;12.57;;;;;;;7.28;100.00;99341.75;5096191;28;20180;-61
2022/12/05 01:38:06;;;;;;;20.80;12.05;;;;;;;7.22;100.00;99315.44;5096416;28;20180;-61
2022/12/05 01:40:34;;;;;;;20.65;11.90;;;;;;;7.41;100.00;99332.59;5096036;28;20205;-60
2022/12/05 01:43:00;;;;;;;20.10;11.98;;;;;;;7.19;100.00;99294.94;5096042;28;20180;-60
2022/12/05 01:45:36;;;;;;;18.25;11.57;;;;;;;7.53;100.00;99334.72;5096016;28;20177;-60
2022/12/05 01:48:06;;;;;;;20.52;11.00;;;;;;;7.24;100.00;99283.59;5096027;28;20680;-61
2022/12/05 01:50:33;;;;;;;16.77;10.70;;;;;;;7.37;100.00;99287.31;5097002;28;20184;-61
2022/12/05 01:52:59;;;;;;;18.50;11.05;;;;;;;7.60;100.00;99315.50;5095888;28;20555;-61
2022/12/05 01:55:24;;;;;;;22.95;12.95;;;;;;;7.54;100.00;99287.44;5096076;28;20205;-60
2022/12/05 01:57:50;;;;;;;21.45;12.70;;;;;;;7.67;100.00;99288.59;5095804;28;20249;-61
2022/12/05 02:00:18;;;;;;;20.52;13.73;;;;;;;7.95;100.00;99329.44;5095668;28;20543;-60
2022/12/05 02:02:58;;;;;;;19.55;12.98;;;;;;;7.88;100.00;99328.91;5095381;28;20188;-60
2022/12/05 02:05:32;;;;;;;21.55;13.80;;;;;;;7.67;100.00;99282.59;5096804;28;20199;-60
2022/12/05 02:08:01;;;;;;;22.15;14.23;;;;;;;7.56;100.00;99270.19;5095677;28;20513;-61
2022/12/05 02:10:32;;;;;;;22.20;13.65;;;;;;;7.65;100.00;99313.59;5095684;28;20532;-60
2022/12/05 02:13:06;;;;;;;23.42;13.65;;;;;;;7.67;100.00;99327.22;5095777;28;20526;-60
2022/12/05 02:15:39;;;;;;;24.05;14.77;;;;;;;7.79;100.00;99324.13;5095508;28;20183;-60
2022/12/05 02:18:07;;;;;;;22.13;14.48;;;;;;;7.90;100.00;99323.66;5095715;28;20169;-61
2022/12/05 02:20:35;;;;;;;27.40;16.80;;;;;;;7.97;100.00;99328.47;5096145;28;20208;-60
2022/12/05 02:23:35;;;;;;;25.58;18.85;;;;;;;8.04;100.00;99321.34;5095324;28;20176;-59
2022/12/05 02:26:24;;;;;;;37.05;25.00;;;;;;;7.99;100.00;99321.50;5095568;28;20204;-59
2022/12/05 02:29:31;;;;;;;39.72;21.83;;;;;;;8.03;100.00;99328.22;5095783;28;20242;-59
2022/12/05 02:32:16;;;;;;;32.97;18.63;;;;;;;7.77;100.00;99284.72;5094913;28;20657;-59
2022/12/05 02:35:04;;;;;;;31.33;17.98;;;;;;;8.07;100.00;99318.59;5094970;28;20251;-59
2022/12/05 02:37:46;;;;;;;32.38;18.15;;;;;;;7.83;100.00;99288.75;5094927;28;20180;-59
2022/12/05 02:40:26;;;;;;;37.58;19.65;;;;;;;8.00;100.00;99307.75;5094906;28;20169;-59
2022/12/05 02:43:09;;;;;;;38.45;22.65;;;;;;;8.03;100.00;99320.47;5094693;28;20207;-59
2022/12/05 02:45:37;;;;;;;43.35;22.58;;;;;;;7.45;100.00;99226.03;5094851;28;20183;-59
2022/12/05 02:48:05;;;;;;;39.58;21.30;;;;;;;7.73;100.00;99295.19;5094551;28;20177;-60
2022/12/05 02:50:35;;;;;;;39.97;20.83;;;;;;;7.49;100.00;99278.22;5094777;28;20611;-59
2022/12/05 02:53:06;;;;;;;40.50;23.75;;;;;;;7.75;100.00;99317.41;5094808;28;20169;-60
2022/12/05 02:55:34;;;;;;;44.35;21.58;;;;;;;7.51;100.00;99268.72;5094782;28;20226;-60
2022/12/05 02:58:04;;;;;;;35.88;19.08;;;;;;;7.55;100.00;99278.81;5094569;28;20177;-61
2022/12/05 03:00:30;;;;;;;33.25;18.73;;;;;;;7.70;100.00;99309.06;5094527;28;20244;-60
2022/12/05 03:02:58;;;;;;;36.65;19.23;;;;;;;7.23;100.00;99270.78;5094579;28;20168;-60
2022/12/05 03:05:52;;;;;;;36.35;18.98;;;;;;;7.56;100.00;99334.56;5094447;28;20172;-60
2022/12/05 03:08:22;;;;;;;33.55;18.92;;;;;;;7.52;100.00;99320.13;5094408;28;20172;-60
2022/12/05 03:10:50;;;;;;;38.45;19.55;;;;;;;7.56;100.00;99318.25;5094183;28;20786;-60
2022/12/05 03:13:47;;;;;;;37.83;20.58;;;;;;;7.65;100.00;99330.75;5094847;28;20225;-60
2022/12/05 03:16:30;;;;;;;40.05;20.65;;;;;;;7.46;100.00;99304.94;5094839;28;20173;-61
2022/12/05 03:19:00;;;;;;;41.78;20.15;;;;;;;7.59;100.00;99329.31;5094496;28;20530;-61
2022/12/05 03:21:29;;;;;;;34.40;19.05;;;;;;;7.66;100.00;99338.44;5094399;28;20643;-60
2022/12/05 03:24:05;;;;;;;38.17;20.27;;;;;;;7.55;100.00;99335.47;5093808;28;20180;-61
2022/12/05 03:26:37;;;;;;;44.80;19.45;;;;;;;7.44;100.00;99347.94;5094133;28;20618;-60
2022/12/05 03:29:11;;;;;;;36.97;20.00;;;;;;;7.42;100.00;99347.19;5094344;28;20199;-60
2022/12/05 03:31:44;;;;;;;41.92;20.60;;;;;;;7.41;100.00;99332.59;5093958;28;20188;-60
2022/12/05 03:34:27;;;;;;;37.17;20.73;;;;;;;7.06;100.00;99273.19;5094006;28;20593;-61
2022/12/05 03:36:53;;;;;;;37.20;20.15;;;;;;;7.37;100.00;99331.09;5093628;28;20674;-61
2022/12/05 03:39:31;;;;;;;31.98;20.05;;;;;;;7.36;100.00;99328.56;5093859;28;20173;-61
2022/12/05 03:42:04;;;;;;;33.25;20.25;;;;;;;7.22;100.00;99311.09;5093686;28;20279;-61
2022/12/05 03:44:56;;;;;;;35.75;19.02;;;;;;;7.23;100.00;99322.25;5093056;28;20192;-61
2022/12/05 03:47:26;;;;;;;39.50;21.10;;;;;;;7.22;100.00;99321.41;5093630;28;20630;-61
2022/12/05 03:49:59;;;;;;;36.00;18.95;;;;;;;6.91;100.00;99277.22;5093930;28;20165;-61
2022/12/05 03:52:46;;;;;;;39.40;20.45;;;;;;;7.23;100.00;99322.25;5094102;28;20173;-62
2022/12/05 03:55:13;;;;;;;42.83;20.15;;;;;;;7.09;100.00;99309.94;5093950;28;20176;-61
2022/12/05 03:57:55;;;;;;;38.38;20.00;;;;;;;6.64;100.00;99244.06;5094007;28;20253;-61
2022/12/05 04:00:23;;;;;;;37.97;19.27;;;;;;;6.88;100.00;99279.91;5093384;28;20174;-61
2022/12/05 04:03:04;;;;;;;36.17;18.77;;;;;;;7.06;100.00;99299.75;5093353;28;20631;-61
2022/12/05 04:05:55;;;;;;;31.48;18.58;;;;;;;7.35;100.00;99332.03;5093920;28;20164;-61
2022/12/05 04:08:38;;;;;;;38.95;20.05;;;;;;;7.28;100.00;99331.44;5093329;28;20173;-62
2022/12/05 04:11:10;;;;;;;35.58;19.27;;;;;;;7.16;100.00;99298.50;5093607;28;20240;-61
2022/12/05 04:13:42;;;;;;;37.10;19.38;;;;;;;7.05;100.00;99271.53;5093192;28;20591;-61
2022/12/05 04:19:02;;;;;;;37.85;20.88;;;;;;;7.34;100.00;99323.47;5093473;28;20168;-61
2022/12/05 04:21:39;;;;;;;39.47;21.15;;;;;;;7.25;100.00;99323.00;5093010;28;20242;-61
2022/12/05 04:27:05;;;;;;;39.70;20.85;;;;;;;7.39;100.00;99329.28;5093341;28;20257;-61
2022/12/05 04:29:40;;;;;;;38.20;19.50;;;;;;;7.30;100.00;99292.78;5092710;28;20558;-62
2022/12/05 04:32:09;;;;;;;45.47;20.85;;;;;;;7.27;100.00;99277.44;5092896;28;20251;-61
2022/12/05 04:34:36;;;;;;;34.60;19.92;;;;;;;7.23;100.00;99269.00;5093125;28;20670;-61
2022/12/05 04:37:18;;;;;;;39.75;19.80;;;;;;;7.39;100.00;99274.38;5093111;28;20310;-61
2022/12/05 04:39:52;;;;;;;31.95;18.23;;;;;;;7.70;100.00;99313.38;5092830;28;20172;-61
2022/12/05 04:42:20;;;;;;;37.17;20.17;;;;;;;7.78;100.00;99319.88;5093045;28;20192;-61
2022/12/05 04:44:53;;;;;;;34.20;19.98;;;;;;;7.25;100.00;99249.22;5092670;28;20185;-61
2022/12/05 04:47:23;;;;;;;37.17;19.88;;;;;;;7.18;100.00;99236.66;5093249;28;20173;-61
2022/12/05 04:49:51;;;;;;;37.30;19.73;;;;;;;7.53;100.00;99308.97;5092591;28;20180;-61
2022/12/05 04:52:16;;;;;;;35.05;19.98;;;;;;;7.55;100.00;99316.59;5092608;28;20172;-62
2022/12/05 04:55:06;;;;;;;33.20;17.92;;;;;;;7.27;100.00;99277.44;5092458;28;20535;-62
2022/12/05 04:57:59;;;;;;;26.85;16.20;;;;;;;7.36;100.00;99297.66;5092950;28;20225;-61
2022/12/05 05:00:27;;;;;;;33.65;17.67;;;;;;;7.22;100.00;99285.38;5093286;28;20183;-61
2022/12/05 05:03:05;;;;;;;37.33;19.15;;;;;;;7.39;100.00;99324.13;5092723;28;20176;-61
2022/12/05 05:05:31;;;;;;;31.70;17.67;;;;;;;7.08;100.00;99272.25;5093099;28;20180;-61
2022/12/05 05:07:57;;;;;;;31.67;17.63;;;;;;;7.09;100.00;99268.75;5092674;28;20184;-61
2022/12/05 05:10:32;;;;;;;35.20;20.00;;;;;;;7.43;100.00;99323.09;5092064;28;20560;-61
2022/12/05 05:12:57;;;;;;;34.72;19.77;;;;;;;7.47;100.00;99329.78;5093211;28;20180;-61
2022/12/05 05:15:23;;;;;;;29.42;17.75;;;;;;;7.20;100.00;99301.78;5093161;28;20184;-61
2022/12/05 05:17:48;;;;;;;30.25;17.80;;;;;;;7.29;100.00;99322.81;5092323;28;20180;-61
2022/12/05 05:20:22;;;;;;;28.15;16.60;;;;;;;7.36;100.00;99328.56;5092284;28;20184;-61
2022/12/05 05:22:51;;;;;;;27.58;16.65;;;;;;;7.01;100.00;99275.97;5092911;28;20163;-61
2022/12/05 05:25:17;;;;;;;27.50;15.25;;;;;;;7.05;100.00;99287.78;5092296;28;20204;-61
2022/12/05 05:27:47;;;;;;;26.33;15.60;;;;;;;6.98;100.00;99286.38;5092868;28;20218;-61
2022/12/05 05:30:12;;;;;;;26.23;16.00;;;;;;;6.79;100.00;99257.13;5092221;28;20180;-62
2022/12/05 05:32:38;;;;;;;23.73;15.35;;;;;;;7.03;100.00;99305.03;5092826;28;20181;-61
2022/12/05 05:35:03;;;;;;;24.35;14.68;;;;;;;6.98;100.00;99283.78;5092183;28;20212;-61
2022/12/05 05:37:29;;;;;;;26.30;14.77;;;;;;;7.28;100.00;99334.00;5092125;28;20179;-61
2022/12/05 05:39:54;;;;;;;25.60;15.30;;;;;;;7.30;100.00;99332.25;5092965;28;20279;-61
2022/12/05 05:42:20;;;;;;;29.95;16.00;;;;;;;7.30;100.00;99328.81;5091997;28;20192;-61
2022/12/05 05:44:45;;;;;;;30.05;18.20;;;;;;;6.94;100.00;99268.56;5092032;28;20177;-59
2022/12/05 05:47:10;;;;;;;28.13;16.77;;;;;;;7.24;100.00;99335.06;5092020;28;20267;-61
2022/12/05 05:49:36;;;;;;;31.08;17.92;;;;;;;7.01;100.00;99281.13;5092017;28;20177;-60
2022/12/05 05:52:01;;;;;;;27.13;16.15;;;;;;;7.00;100.00;99274.25;5092034;28;20646;-60
2022/12/05 05:54:26;;;;;;;33.17;18.00;;;;;;;7.18;100.00;99316.44;5091982;28;20292;-60
2022/12/05 05:56:52;;;;;;;33.28;17.90;;;;;;;6.96;100.00;99283.03;5091680;28;20229;-60
2022/12/05 05:59:17;;;;;;;29.33;17.80;;;;;;;7.09;100.00;99281.63;5091935;28;20176;-60
2022/12/05 06:01:43;;;;;;;29.70;16.13;;;;;;;7.22;100.00;99282.78;5091823;28;20546;-60
2022/12/05 06:04:08;;;;;;;26.60;15.48;;;;;;;7.25;100.00;99284.41;5092458;28;20183;-60
2022/12/05 06:06:33;;;;;;;26.50;16.48;;;;;;;7.60;100.00;99323.25;5091905;28;20203;-60
2022/12/05 06:08:59;;;;;;;24.55;16.40;;;;;;;7.72;100.00;99327.03;5094479;28;20241;-61
2022/12/05 06:11:26;;;;;;;23.15;14.70;;;;;;;7.56;100.00;99295.94;5095664;28;20200;-60
2022/12/05 06:13:56;;;;;;;22.40;13.77;;;;;;;7.75;100.00;99345.75;5095550;28;20180;-60
2022/12/05 06:16:22;;;;;;;24.92;13.93;;;;;;;7.31;100.00;99300.44;5095979;28;20242;-61
2022/12/05 06:18:48;;;;;;;24.58;14.65;;;;;;;7.50;100.00;99332.25;5095075;28;20177;-60
2022/12/05 06:21:14;;;;;;;23.90;14.10;;;;;;;7.30;100.00;99300.50;5095344;28;20195;-61
2022/12/05 06:23:39;;;;;;;23.10;13.70;;;;;;;7.45;100.00;99305.03;5095296;28;20180;-60
2022/12/05 06:26:08;;;;;;;25.00;15.60;;;;;;;7.88;100.00;99351.25;5095883;28;20172;-61
2022/12/05 06:28:34;;;;;;;23.90;15.88;;;;;;;7.77;100.00;99325.09;5094909;28;20176;-60
2022/12/05 06:31:06;;;;;;;28.60;15.13;;;;;;;7.91;100.00;99340.78;5095124;28;20530;-60
2022/12/05 06:33:31;;;;;;;28.95;16.10;;;;;;;7.91;100.00;99326.19;5095948;28;20164;-61
2022/12/05 06:36:02;;;;;;;26.00;15.05;;;;;;;7.96;100.00;99341.44;5095029;28;20718;-60
2022/12/05 06:38:28;;;;;;;28.88;15.68;;;;;;;7.85;100.00;99317.84;5095088;28;20264;-60
2022/12/05 06:40:53;;;;;;;32.63;16.50;;;;;;;8.19;100.00;99367.88;5094887;28;20614;-60
2022/12/05 06:43:19;;;;;;;29.02;17.02;;;;;;;8.21;100.00;99378.19;5094746;28;20279;-60
2022/12/05 06:45:44;;;;;;;31.70;16.20;;;;;;;8.15;100.00;99379.22;5095028;28;20557;-60
2022/12/05 06:48:09;;;;;;;32.70;16.92;;;;;;;7.96;100.00;99344.84;5094729;28;20275;-60
2022/12/05 06:50:35;;;;;;;29.45;17.27;;;;;;;7.97;100.00;99351.69;5094922;28;20211;-60
2022/12/05 06:53:00;;;;;;;33.53;18.10;;;;;;;8.00;100.00;99356.72;5094480;28;20246;-60
2022/12/05 06:55:26;;;;;;;29.27;16.55;;;;;;;7.83;100.00;99324.81;5094682;28;20255;-61
2022/12/05 06:57:51;;;;;;;29.15;17.05;;;;;;;8.21;100.00;99384.16;5094507;28;20183;-60
2022/12/05 07:03:00;;;;;;;38.30;22.45;;;;;;;8.20;100.00;99392.78;5094586;28;20188;-60
2022/12/05 07:05:26;;;;;;;35.33;23.33;;;;;;;7.98;100.00;99362.84;5094406;28;20172;-59
2022/12/05 07:07:51;;;;;;;43.08;24.90;;;;;;;8.05;100.00;99362.47;5093102;28;20274;-60
2022/12/05 07:10:17;;;;;;;46.85;26.15;;;;;;;8.24;100.00;99383.19;5093492;28;20177;-59
2022/12/05 07:12:42;;;;;;;49.13;27.58;;;;;;;8.21;100.00;99396.22;5094186;28;20634;-60
2022/12/05 07:15:08;;;;;;;51.45;28.50;;;;;;;8.11;100.00;99389.75;5094312;28;20266;-60
2022/12/05 07:17:36;;;;;;;54.00;29.50;;;;;;;8.26;100.00;99410.56;5094015;28;20263;-60
2022/12/05 07:20:02;;;;;;;50.85;28.30;;;;;;;8.22;100.00;99375.50;5094164;28;20256;-60
2022/12/05 07:22:28;;;;;;;47.75;27.38;;;;;;;8.29;100.00;99384.66;5094008;28;20291;-60
2022/12/05 07:24:53;;;;;;;43.85;26.15;;;;;;;8.08;100.00;99357.19;5094092;28;20168;-60
2022/12/05 07:27:18;;;;;;;50.13;26.08;;;;;;;8.01;100.00;99360.97;5094370;28;20172;-60
2022/12/05 07:29:44;;;;;;;46.63;26.75;;;;;;;7.57;100.00;99277.00;5094588;28;20184;-60
2022/12/05 07:32:09;;;;;;;56.22;32.35;;;;;;;8.14;100.00;99356.94;5093948;28;20240;-60
2022/12/05 07:34:35;;;;;;;49.50;29.00;;;;;;;8.15;100.00;99350.88;5093939;28;20172;-60
2022/12/05 07:37:00;;;;;;;51.10;27.52;;;;;;;8.58;100.00;99415.16;5093883;28;20306;-60
2022/12/05 07:39:26;;;;;;;57.88;29.80;;;;;;;8.37;100.00;99374.84;5094144;28;20168;-60
2022/12/05 07:41:51;;;;;;;75.55;39.55;;;;;;;8.46;100.00;99379.56;5093779;28;20200;-60
2022/12/05 07:44:17;;;;;;;66.95;37.38;;;;;;;8.55;100.00;99394.66;5093757;28;20187;-60
2022/12/05 07:46:43;;;;;;;72.72;41.60;;;;;;;8.37;100.00;99358.53;5093686;28;20181;-60
2022/12/05 07:49:08;;;;;;;69.32;37.22;;;;;;;8.59;100.00;99396.19;5094213;28;20179;-60
2022/12/05 07:51:34;;;;;;;57.58;32.72;;;;;;;8.66;100.00;99397.59;5093574;28;20660;-60
2022/12/05 07:54:00;;;;;;;64.72;33.83;;;;;;;8.70;100.00;99409.47;5094705;28;20223;-60
2022/12/05 07:56:26;;;;;;;55.70;29.80;;;;;;;8.22;100.00;99334.25;5093501;28;20625;-60
2022/12/05 07:58:52;;;;;;;54.22;27.77;;;;;;;8.41;100.00;99378.97;5093764;28;20233;-60
2022/12/05 08:01:20;;;;;;;47.63;25.90;;;;;;;8.45;100.00;99371.94;5093428;28;20578;-60
2022/12/05 08:03:47;;;;;;;50.92;25.55;;;;;;;8.47;100.00;99373.53;5093367;28;20554;-60
2022/12/05 08:06:15;;;;;;;46.63;25.83;;;;;;;8.79;100.00;99421.13;5093345;28;20203;-60
2022/12/05 08:08:42;;;;;;;53.83;26.38;;;;;;;8.83;100.00;99427.78;5093288;28;20187;-60
2022/12/05 08:11:10;;;;;;;38.58;23.33;;;;;;;8.82;100.00;99414.06;5093399;28;20621;-59
2022/12/05 08:13:36;;;;;;;41.47;21.55;;;;;;;8.75;100.00;99407.47;5093194;28;20180;-60
2022/12/05 08:16:08;;;;;;;39.28;20.73;;;;;;;8.75;100.00;99414.41;5093719;28;20185;-60
2022/12/05 08:18:34;;;;;;;41.25;20.80;;;;;;;8.60;100.00;99377.22;5093183;28;20643;-60
2022/12/05 08:21:10;;;;;;;34.70;20.40;;;;;;;8.56;100.00;99369.72;5092989;28;20207;-60
2022/12/05 08:23:37;;;;;;;42.17;21.25;;;;;;;8.61;100.00;99378.91;5093941;28;20168;-60
2022/12/05 08:26:24;;;;;;;38.42;20.20;;;;;;;8.92;100.00;99424.81;5092966;28;20654;-60
2022/12/05 08:29:09;;;;;;;36.42;21.85;;;;;;;8.71;100.00;99382.75;5093050;28;20168;-60
2022/12/05 08:31:42;;;;;;;41.25;21.77;;;;;;;8.78;100.00;99376.41;5092523;28;20180;-60
2022/12/05 08:34:10;;;;;;;44.47;24.13;;;;;;;9.07;100.00;99419.75;5093471;28;20169;-60
2022/12/05 08:36:36;;;;;;;47.03;24.40;;;;;;;8.87;100.00;99390.63;5093327;28;20187;-60
2022/12/05 08:39:04;;;;;;;45.47;24.55;;;;;;;9.09;100.00;99427.44;5092846;28;20559;-60
2022/12/05 08:41:31;;;;;;;46.13;25.80;;;;;;;9.09;100.00;99412.78;5092680;28;20196;-60
2022/12/05 08:44:01;;;;;;;46.53;26.40;;;;;;;9.10;100.00;99408.47;5092749;28;20662;-60
2022/12/05 08:46:28;;;;;;;49.60;26.48;;;;;;;8.77;100.00;99366.97;5092694;28;20175;-60
2022/12/05 08:48:54;;;;;;;52.45;26.55;;;;;;;8.97;100.00;99413.34;5092698;28;20177;-60
2022/12/05 08:51:20;;;;;;;42.53;23.80;;;;;;;8.63;100.00;99368.53;5092631;28;20188;-60
2022/12/05 08:53:45;;;;;;;47.42;24.83;;;;;;;8.75;100.00;99402.31;5093111;28;20229;-60
2022/12/05 08:56:11;;;;;;;49.67;26.75;;;;;;;8.27;100.00;99322.00;5092600;28;20550;-60
2022/12/05 08:58:38;;;;;;;51.75;26.88;;;;;;;8.42;100.00;99347.13;5092795;28;20246;-60
2022/12/05 09:01:04;;;;;;;52.67;27.20;;;;;;;8.76;100.00;99398.00;5093011;28;20204;-60
2022/12/05 09:03:30;;;;;;;52.42;27.00;;;;;;;8.56;100.00;99354.22;5092463;28;20175;-60
2022/12/05 09:06:08;;;;;;;55.60;28.02;;;;;;;8.65;100.00;99339.16;5092422;28;20230;-60
2022/12/05 09:08:33;;;;;;;47.97;26.83;;;;;;;8.92;100.00;99389.47;5093068;28;20255;-60
2022/12/05 09:10:59;;;;;;;54.15;28.63;;;;;;;8.93;100.00;99365.38;5092165;28;20700;-60
2022/12/05 09:13:24;;;;;;;46.95;25.63;;;;;;;8.80;100.00;99337.63;5092108;28;20325;-60
2022/12/05 09:15:49;;;;;;;51.22;29.23;;;;;;;9.00;100.00;99374.50;5092049;28;20263;-60
2022/12/05 09:18:15;;;;;;;53.38;30.08;;;;;;;8.39;100.00;99280.19;5092156;28;20173;-60
2022/12/05 09:20:40;;;;;;;55.40;32.88;;;;;;;8.84;100.00;99364.94;5092560;28;20595;-60
2022/12/05 09:23:06;;;;;;;66.05;34.22;;;;;;;8.49;100.00;99294.34;5092039;28;20549;-59
2022/12/05 09:25:31;;;;;;;58.58;32.88;;;;;;;8.87;100.00;99351.91;5092612;28;20176;-60
2022/12/05 09:27:57;;;;;;;69.35;36.45;;;;;;;8.57;100.00;99294.81;5091986;28;20233;-60
2022/12/05 09:30:22;;;;;;;76.65;43.22;;;;;;;8.63;100.00;99304.84;5091921;28;20704;-62
2022/12/05 09:32:47;;;;;;;53.72;29.85;;;;;;;9.00;100.00;99342.66;5092478;28;20168;-61
2022/12/05 09:35:13;;;;;;;66.38;33.03;;;;;;;9.00;100.00;99345.25;5092712;28;20233;-61
2022/12/05 09:37:38;;;;;;;70.75;35.15;;;;;;;8.64;100.00;99256.69;5092131;28;20559;-61
2022/12/05 09:40:04;;;;;;;62.67;32.38;;;;;;;8.33;100.00;99199.72;5089905;28;20254;-61
2022/12/05 09:43:05;;;;;;;54.40;28.95;;;;;;;9.26;100.00;99352.59;5089787;28;20334;-61
2022/12/05 09:45:33;;;;;;;50.35;26.48;;;;;;;9.29;100.00;99348.13;5073426;28;20193;-61
2022/12/05 09:48:14;;;;;;;48.10;25.50;;;;;;;9.03;100.00;99286.56;5073364;28;20189;-61
2022/12/05 09:50:53;;;;;;;46.60;25.25;;;;;;;9.05;100.00;99276.19;5073334;28;20228;-60
2022/12/05 09:53:36;;;;;;;47.75;26.00;;;;;;;9.41;100.00;99328.59;5073540;28;20181;-61
2022/12/05 09:56:07;;;;;;;46.33;26.70;;;;;;;9.11;100.00;99270.72;5073300;28;20193;-62
2022/12/05 09:58:55;;;;;;;49.92;26.75;;;;;;;9.44;100.00;99318.94;5073453;28;20219;-62
2022/12/05 10:01:33;;;;;;;52.45;25.55;;;;;;;9.47;100.00;99321.41;5073020;28;20201;-61
2022/12/05 10:04:10;;;;;;;43.17;23.95;;;;;;;9.52;100.00;99319.44;5073013;28;20211;-61
2022/12/05 10:06:41;;;;;;;50.35;27.63;;;;;;;9.51;100.00;99327.25;5073418;28;20678;-61
2022/12/05 10:09:25;;;;;;;47.08;24.55;;;;;;;9.43;100.00;99317.28;5073035;28;20185;-61
2022/12/05 10:12:15;;;;;;;45.92;23.85;;;;;;;9.27;100.00;99259.53;5072985;28;20208;-61
2022/12/05 10:15:19;;;;;;;39.72;21.30;;;;;;;9.66;100.00;99314.38;5073227;28;20252;-61
2022/12/05 10:18:23;;;;;;;40.30;21.25;;;;;;;9.67;100.00;99310.88;5059159;28;20217;-62
2022/12/05 10:21:03;;;;;;;41.25;23.27;;;;;;;9.70;100.00;99308.97;5013798;28;20207;-61
2022/12/05 10:23:37;;;;;;;40.85;22.98;;;;;;;9.76;100.00;99292.34;5032890;28;20182;-63
2022/12/05 10:26:06;;;;;;;48.30;24.98;;;;;;;9.63;100.00;99261.13;5033002;28;20237;-63
2022/12/05 10:28:46;;;;;;;43.13;23.30;;;;;;;9.89;100.00;99303.72;5032728;28;20194;-62
2022/12/05 10:31:18;;;;;;;45.22;23.83;;;;;;;9.90;100.00;99300.22;5033193;28;20190;-62
2022/12/05 10:33:48;;;;;;;48.45;27.48;;;;;;;9.99;100.00;99310.09;5031026;28;20177;-61
2022/12/05 10:36:14;;;;;;;52.08;27.70;;;;;;;10.01;100.00;99305.66;5032249;28;20653;-62
2022/12/05 10:38:42;;;;;;;48.28;24.95;;;;;;;9.78;100.00;99269.84;5032572;28;20197;-62
2022/12/05 10:41:12;;;;;;;40.50;24.98;;;;;;;9.87;100.00;99290.88;5032295;28;20651;-62
2022/12/05 10:43:44;;;;;;;46.70;22.80;;;;;;;9.66;100.00;99254.97;5032555;28;20186;-62
2022/12/05 10:46:12;;;;;;;45.90;24.60;;;;;;;9.40;100.00;99208.13;5032238;28;20718;-62
2022/12/05 10:48:39;;;;;;;49.75;26.33;;;;;;;9.82;100.00;99284.28;5032305;28;20256;-62
2022/12/05 10:51:06;;;;;;;39.65;21.00;;;;;;;9.57;100.00;99251.09;5032283;28;20194;-62
2022/12/05 10:53:48;;;;;;;29.48;18.17;;;;;;;9.75;100.00;99285.50;5031963;28;20214;-62
2022/12/05 10:56:35;;;;;;;32.42;18.10;;;;;;;9.66;100.00;99288.56;5032703;28;20179;-62
2022/12/05 10:59:01;;;;;;;29.63;16.88;;;;;;;9.61;100.00;99261.28;5094522;28;20180;-62
2022/12/05 11:01:26;;;;;;;26.30;16.00;;;;;;;9.62;100.00;99263.78;5094981;28;20202;-62
2022/12/05 11:04:03;;;;;;;25.75;15.27;;;;;;;9.72;100.00;99280.47;5094450;28;20184;-62
2022/12/05 11:06:31;;;;;;;21.23;13.60;;;;;;;9.69;100.00;99272.91;5094980;28;20253;-63
2022/12/05 11:09:33;;;;;;;20.88;13.80;;;;;;;9.74;100.00;99269.16;5094316;28;20177;-62
2022/12/05 11:12:21;;;;;;;14.05;10.27;;;;;;;9.77;100.00;99276.78;5051586;28;20216;-62
2022/12/05 11:14:56;;;;;;;16.40;10.30;;;;;;;9.62;100.00;99244.88;5051664;28;20238;-62
2022/12/05 11:17:43;;;;;;;14.35;9.80;;;;;;;9.83;100.00;99260.09;5052452;28;20177;-62
2022/12/05 11:20:18;;;;;;;13.73;9.18;;;;;;;9.95;100.00;99267.22;5051241;28;20285;-63
2022/12/05 11:22:49;;;;;;;11.40;8.30;;;;;;;9.55;100.00;99203.00;5052055;28;20256;-62
2022/12/05 11:25:34;;;;;;;13.88;9.73;;;;;;;9.88;100.00;99245.19;5051501;28;20174;-62
2022/12/05 11:28:20;;;;;;;13.88;9.60;;;;;;;9.92;100.00;99252.69;5051361;28;20189;-62
2022/12/05 11:30:58;;;;;;;14.98;10.68;;;;;;;9.86;100.00;99247.84;5051735;28;20701;-62
2022/12/05 11:33:26;;;;;;;17.00;10.88;;;;;;;9.92;100.00;99241.53;5051312;28;20186;-63
2022/12/05 11:35:54;;;;;;;15.65;10.40;;;;;;;9.70;100.00;99197.03;5051464;28;20189;-62
2022/12/05 11:38:23;;;;;;;13.75;10.98;;;;;;;9.65;100.00;99191.28;5051698;28;20181;-62
2022/12/05 11:41:05;;;;;;;20.15;10.98;;;;;;;9.92;100.00;99236.38;5051047;28;20202;-62